Nearby METAR Reports

 

KRDU - Raleigh-Durham, NC, USA
Distance from station: NE 9mi, 14km
Updated: Fri, 24-Sep-2021 1:51pm EDT
Few Clouds
Few Clouds
 Wind from varies
Wind: varies 6 mph , 9 km/h
Temperature: 73°F , 23°C
Dew Point: 48°F , 9°C
Humidity: 41%
Barometer: 1019.3 hPa
Clouds: Few Clouds
Visibility: 10 miles , 16 km
Cloud details: Few Clouds 5500 ft
2021/09/24 17:51 KRDU 241751Z VRB05KT 10SM FEW055 23/09 A3010 RMK AO2 SLP190 T02330089 10233 20122 58015
KLHZ - Louisburg, NC, USA
Distance from station: N 9mi, 14km
Updated: Fri, 24-Sep-2021 1:55pm EDT
Haze, Clear
Haze, Clear
 Wind from N
Wind: N 3 mph , 6 km/h
Temperature: 72°F , 22°C
Dew Point: 50°F , 10°C
Humidity: 47%
Barometer: 1020 hPa
Summary: Haze
Clouds: Clear
Visibility: 5 miles , 8 km
2021/09/24 17:55 KLHZ 241755Z AUTO 35003KT 5SM HZ CLR 22/10 A3012 RMK AO2
 
KJNX - Smithfield, NC, USA
Distance from station: NNW 14mi, 23km
Updated: Fri, 24-Sep-2021 1:55pm EDT
Clear
Clear
 Wind from N
Wind: N 6 mph , 9 km/h
Temperature: 75°F , 24°C
Dew Point: 52°F , 11°C
Humidity: 44%
Barometer: 1018.6 hPa
Clouds: Clear
Visibility: 10 miles , 16 km
2021/09/24 17:55 KJNX 241755Z AUTO 36005KT 10SM CLR 24/11 A3008 RMK AO2
KHRJ - Erwin, NC, USA
Distance from station: ENE 12mi, 19km
Updated: Fri, 24-Sep-2021 1:55pm EDT
Clear
Clear
 Wind from W
Wind: W 3 mph , 6 km/h
Temperature: 75°F , 24°C
Dew Point: 48°F , 9°C
Humidity: 39%
Barometer: 1019 hPa
Clouds: Clear
Visibility: 10 miles , 16 km
2021/09/24 17:55 KHRJ 241755Z AUTO 26003KT 10SM CLR 24/09 A3009 RMK AO2 T02390092 10243 20125
 
KTTA - Sanford, NC, USA
Distance from station: NNW 31mi, 50km
Updated: Fri, 24-Sep-2021 1:55pm EDT
Clear
Clear
 Wind from NW
Wind: NW 5 mph , 7 km/h
Temperature: 72°F , 22°C
Dew Point: 45°F , 7°C
Humidity: 38%
Barometer: 1019 hPa
Clouds: Clear
Visibility: 10 miles , 16 km
2021/09/24 17:55 KTTA 241755Z AUTO 32004KT 10SM CLR 22/07 A3009 RMK AO2 T02190069 10221 20087
KSCR - Siler City, NC, USA
Distance from station: NW 21mi, 34km
Updated: Fri, 24-Sep-2021 1:55pm EDT
Clear
Clear
 Wind from calm
Wind: Calm
Temperature: 72°F , 22°C
Dew Point: 46°F , 8°C
Humidity: 41%
Barometer: 1019.6 hPa
Clouds: Clear
Visibility: 10 miles , 16 km
2021/09/24 17:55 KSCR 241755Z AUTO 00000KT 10SM CLR 22/08 A3011 RMK AO2 60003 T02170077 10217 20094